Terminal Aerodrome Forecast
Issued by NWS

Home | Current Version | Previous Version | Text Only | Print | Product List | Glossary On
Versions: 1 2 3 4 5 6 7 8 9 10 11 12
000
FTUS42 KTBW 051141
TAFLAL
TAF
KLAL 051141Z 0512/0612 VRB03KT P6SM FEW015 SCT250
     FM051400 04004KT P6SM SCT025 SCT250
     FM051700 36005KT P6SM VCTS BKN035CB
     FM052100 04006KT P6SM VCTS BKN040CB
     FM060000 VRB03KT P6SM SCT040 SCT100 BKN200
     FM060300 VRB03KT P6SM SCT250=

USA.gov is the U.S. government's official web portal to all federal, state and local government web resources and services.